Time;durP1;ratioP1;P1;durP2;ratioP2;P2;SDS_P1;SDS_P2;PMS_P1;PMS_P2;Temp;Humidity;BMP_temperature;BMP_pressure;BME280_temperature;BME280_humidity;BME280_pressure;Samples;Min_cycle;Max_cycle;Signal;HPM_P1;HPM_P2
2021/07/09 00:02:13;;;;;;;6.30;2.45;;;;;;;;;;5115381;28;20057;-81
2021/07/09 00:04:38;;;;;;;6.70;2.10;;;;;;;;;;5114188;28;20112;-81
2021/07/09 00:07:04;;;;;;;7.88;2.45;;;;;;;;;;5115253;28;20043;-81
2021/07/09 00:09:29;;;;;;;2.75;2.25;;;;;;;;;;5115545;28;20036;-81
2021/07/09 00:11:56;;;;;;;11.75;2.40;;;;;;;;;;5115501;27;20088;-82
2021/07/09 00:14:25;;;;;;;6.15;2.58;;;;;;;;;;5115257;28;20436;-82
2021/07/09 00:16:51;;;;;;;4.53;2.85;;;;;;;;;;5115417;28;20096;-81
2021/07/09 00:19:16;;;;;;;5.30;2.85;;;;;;;;;;5115127;28;20028;-81
2021/07/09 00:21:42;;;;;;;7.25;3.47;;;;;;;;;;5113937;27;20586;-82
2021/07/09 00:24:08;;;;;;;9.40;3.28;;;;;;;;;;5115092;28;20027;-81
2021/07/09 00:26:34;;;;;;;6.40;3.60;;;;;;;;;;5096834;28;20038;-81
2021/07/09 00:29:00;;;;;;;5.35;3.42;;;;;;;;;;5113837;28;20130;-81
2021/07/09 00:31:30;;;;;;;6.05;3.25;;;;;;;;;;5113835;28;20125;-81
2021/07/09 00:33:56;;;;;;;9.05;3.00;;;;;;;;;;5120856;28;20031;-82
2021/07/09 00:36:22;;;;;;;8.48;3.30;;;;;;;;;;5123420;27;20044;-83
2021/07/09 00:38:47;;;;;;;5.35;3.05;;;;;;;;;;5123289;27;20039;-82
2021/07/09 00:41:13;;;;;;;11.60;3.35;;;;;;;;;;5116038;28;20040;-81
2021/07/09 00:43:38;;;;;;;5.65;3.30;;;;;;;;;;5118138;28;20502;-82
2021/07/09 00:46:04;;;;;;;7.75;2.80;;;;;;;;;;5118939;28;20486;-82
2021/07/09 00:48:29;;;;;;;6.88;2.50;;;;;;;;;;5118566;28;20045;-81
2021/07/09 00:50:59;;;;;;;4.85;2.90;;;;;;;;;;5116417;28;20031;-81
2021/07/09 00:53:25;;;;;;;5.78;3.10;;;;;;;;;;5117703;28;20023;-81
2021/07/09 00:55:51;;;;;;;6.30;3.10;;;;;;;;;;5119645;28;20504;-82
2021/07/09 00:58:16;;;;;;;5.40;3.50;;;;;;;;;;5120931;28;20027;-81
2021/07/09 01:00:42;;;;;;;6.05;3.85;;;;;;;;;;5120420;28;20398;-81
2021/07/09 01:03:08;;;;;;;4.82;3.40;;;;;;;;;;5120846;28;20489;-82
2021/07/09 01:05:35;;;;;;;12.57;4.07;;;;;;;;;;5120148;28;20046;-82
2021/07/09 01:08:03;;;;;;;9.88;4.00;;;;;;;;;;5120771;28;20036;-81
2021/07/09 01:10:28;;;;;;;8.82;4.32;;;;;;;;;;5100208;28;20031;-81
2021/07/09 01:12:54;;;;;;;8.80;4.43;;;;;;;;;;5116913;28;20079;-81
2021/07/09 01:15:19;;;;;;;8.68;4.57;;;;;;;;;;5116597;28;20482;-81
2021/07/09 01:17:46;;;;;;;16.70;4.70;;;;;;;;;;5115598;28;20498;-81
2021/07/09 01:20:13;;;;;;;10.38;4.85;;;;;;;;;;5115750;28;20118;-82
2021/07/09 01:22:42;;;;;;;10.70;5.55;;;;;;;;;;5115752;28;20031;-81
2021/07/09 01:25:11;;;;;;;8.20;4.40;;;;;;;;;;5113622;28;20050;-82
2021/07/09 01:27:38;;;;;;;12.57;5.30;;;;;;;;;;5114283;28;20482;-81
2021/07/09 01:30:14;;;;;;;17.08;5.53;;;;;;;;;;5116021;28;20110;-81
2021/07/09 01:32:39;;;;;;;;;;;;;;;;;;5116928;28;20589;-81
2021/07/09 01:35:05;;;;;;;6.40;4.60;;;;;;;;;;5115783;28;19947;-81
2021/07/09 01:37:31;;;;;;;10.43;4.82;;;;;;;;;;5115315;28;20040;-81
2021/07/09 01:39:56;;;;;;;7.97;5.10;;;;;;;;;;5115692;28;20039;-81
2021/07/09 01:42:21;;;;;;;9.07;4.57;;;;;;;;;;5118350;28;20035;-81
2021/07/09 01:44:47;;;;;;;16.75;5.22;;;;;;;;;;5118050;28;20062;-81
2021/07/09 01:47:13;;;;;;;11.63;5.22;;;;;;;;;;5116947;28;20071;-81
2021/07/09 01:49:54;;;;;;;11.10;5.45;;;;;;;;;;5118659;28;20057;-81
2021/07/09 01:52:20;;;;;;;13.52;5.82;;;;;;;;;;5118218;28;20172;-81
2021/07/09 01:54:46;;;;;;;8.93;5.05;;;;;;;;;;5113839;28;20035;-81
2021/07/09 01:57:13;;;;;;;17.63;6.15;;;;;;;;;;5094708;28;20044;-81
2021/07/09 01:59:39;;;;;;;19.02;6.10;;;;;;;;;;5094243;28;20544;-81
2021/07/09 02:02:05;;;;;;;12.90;6.22;;;;;;;;;;5092621;28;20039;-81
2021/07/09 02:04:31;;;;;;;14.85;5.38;;;;;;;;;;5093830;28;20465;-81
2021/07/09 02:06:59;;;;;;;11.43;5.07;;;;;;;;;;5093753;28;20040;-81
2021/07/09 02:09:25;;;;;;;11.48;4.95;;;;;;;;;;5092154;28;20042;-81
2021/07/09 02:11:50;;;;;;;14.40;6.18;;;;;;;;;;5092531;28;20037;-81
2021/07/09 02:14:16;;;;;;;14.70;5.00;;;;;;;;;;5094385;28;20032;-81
2021/07/09 02:16:41;;;;;;;10.07;5.07;;;;;;;;;;5094638;28;20066;-79
2021/07/09 02:19:07;;;;;;;20.02;6.47;;;;;;;;;;5094648;28;20036;-80
2021/07/09 02:21:33;;;;;;;16.48;7.72;;;;;;;;;;5094770;28;20119;-83
2021/07/09 02:23:58;;;;;;;22.67;8.77;;;;;;;;;;5094354;28;20081;-79
2021/07/09 02:26:24;;;;;;;23.45;9.15;;;;;;;;;;5113174;28;20051;-80
2021/07/09 02:28:49;;;;;;;17.30;9.20;;;;;;;;;;5114647;28;20036;-80
2021/07/09 02:31:15;;;;;;;14.55;8.60;;;;;;;;;;5116753;28;20039;-82
2021/07/09 02:33:41;;;;;;;17.90;8.18;;;;;;;;;;5116092;28;20024;-80
2021/07/09 02:36:06;;;;;;;24.05;8.95;;;;;;;;;;5117277;28;20375;-80
2021/07/09 02:38:32;;;;;;;21.23;7.55;;;;;;;;;;5118875;28;20046;-80
2021/07/09 02:40:57;;;;;;;15.88;6.70;;;;;;;;;;5119523;28;20039;-80
2021/07/09 02:43:22;;;;;;;18.23;7.35;;;;;;;;;;5118337;28;20050;-80
2021/07/09 02:45:48;;;;;;;14.45;7.45;;;;;;;;;;5116694;28;20031;-80
2021/07/09 02:48:14;;;;;;;15.48;9.10;;;;;;;;;;5118364;27;20118;-81
2021/07/09 02:50:39;;;;;;;16.88;8.35;;;;;;;;;;5118212;28;20035;-80
2021/07/09 02:53:05;;;;;;;17.83;7.63;;;;;;;;;;5117558;28;20402;-78
2021/07/09 02:55:30;;;;;;;13.13;7.55;;;;;;;;;;5107482;28;20028;-78
2021/07/09 02:57:55;;;;;;;13.15;7.38;;;;;;;;;;5107055;28;20486;-80
2021/07/09 03:00:21;;;;;;;15.93;9.65;;;;;;;;;;5117115;28;20031;-81
2021/07/09 03:02:46;;;;;;;14.50;8.60;;;;;;;;;;5118634;27;20122;-80
2021/07/09 03:05:12;;;;;;;19.13;9.77;;;;;;;;;;5118101;28;20032;-79
2021/07/09 03:07:39;;;;;;;21.15;9.80;;;;;;;;;;5118433;28;20138;-79
2021/07/09 03:10:07;;;;;;;13.50;9.82;;;;;;;;;;5118659;28;20031;-79
2021/07/09 03:12:32;;;;;;;18.55;10.32;;;;;;;;;;5118591;28;20034;-79
2021/07/09 03:14:57;;;;;;;22.30;10.02;;;;;;;;;;5117298;27;20470;-79
2021/07/09 03:17:23;;;;;;;24.60;9.13;;;;;;;;;;5117730;28;20104;-79
2021/07/09 03:19:48;;;;;;;19.73;9.77;;;;;;;;;;5118402;28;20066;-79
2021/07/09 03:22:13;;;;;;;13.40;8.98;;;;;;;;;;5116579;28;20466;-79
2021/07/09 03:24:39;;;;;;;19.75;10.20;;;;;;;;;;5117791;27;20073;-79
2021/07/09 03:27:06;;;;;;;20.00;7.93;;;;;;;;;;5120503;28;20027;-79
2021/07/09 03:29:31;;;;;;;21.98;8.25;;;;;;;;;;5121276;28;20047;-80
2021/07/09 03:31:57;;;;;;;14.68;7.55;;;;;;;;;;5119951;28;20028;-80
2021/07/09 03:34:22;;;;;;;23.15;8.02;;;;;;;;;;5120928;28;20132;-79
2021/07/09 03:36:48;;;;;;;13.00;6.50;;;;;;;;;;5121498;28;20044;-79
2021/07/09 03:39:14;;;;;;;14.23;5.85;;;;;;;;;;5121011;28;20047;-80
2021/07/09 03:41:40;;;;;;;17.85;6.35;;;;;;;;;;5119781;28;20042;-80
2021/07/09 03:44:07;;;;;;;18.48;8.32;;;;;;;;;;5117195;28;20085;-80
2021/07/09 03:46:36;;;;;;;22.58;11.63;;;;;;;;;;5117452;28;20085;-80
2021/07/09 03:49:06;;;;;;;17.15;11.43;;;;;;;;;;5115471;28;20048;-80
2021/07/09 03:51:34;;;;;;;25.02;11.15;;;;;;;;;;5117199;28;20042;-80
2021/07/09 03:53:59;;;;;;;18.23;13.23;;;;;;;;;;5116997;27;20462;-80
2021/07/09 03:56:29;;;;;;;27.10;13.65;;;;;;;;;;5116397;28;20042;-80
2021/07/09 03:58:55;;;;;;;27.17;13.23;;;;;;;;;;5115276;28;20039;-79
2021/07/09 04:01:20;;;;;;;28.55;14.20;;;;;;;;;;5116228;28;20375;-80
2021/07/09 04:03:46;;;;;;;22.95;11.40;;;;;;;;;;5116568;28;20032;-80
2021/07/09 04:06:11;;;;;;;24.88;15.02;;;;;;;;;;5098034;28;20497;-80
2021/07/09 04:08:36;;;;;;;19.55;15.07;;;;;;;;;;5116524;28;20028;-79
2021/07/09 04:11:02;;;;;;;23.30;15.43;;;;;;;;;;5116465;28;20031;-79
2021/07/09 04:13:27;;;;;;;20.80;15.65;;;;;;;;;;5126399;28;20032;-79
2021/07/09 04:15:52;;;;;;;20.13;14.32;;;;;;;;;;5125817;28;20032;-79
2021/07/09 04:18:18;;;;;;;27.58;14.43;;;;;;;;;;5125890;28;20035;-79
2021/07/09 04:20:43;;;;;;;28.90;15.35;;;;;;;;;;5125484;28;20039;-79
2021/07/09 04:23:08;;;;;;;19.40;13.65;;;;;;;;;;5124132;28;20035;-79
2021/07/09 04:25:34;;;;;;;20.35;15.85;;;;;;;;;;5124447;28;20030;-79
2021/07/09 04:27:59;;;;;;;26.27;17.33;;;;;;;;;;5124877;28;20042;-79
2021/07/09 04:30:25;;;;;;;23.27;15.52;;;;;;;;;;5124766;28;20087;-79
2021/07/09 04:32:51;;;;;;;28.20;16.60;;;;;;;;;;5123807;28;20036;-79
2021/07/09 04:35:16;;;;;;;22.75;15.50;;;;;;;;;;5124807;28;20023;-79
2021/07/09 04:37:42;;;;;;;18.67;14.65;;;;;;;;;;5122513;28;20406;-79
2021/07/09 04:40:08;;;;;;;18.63;15.35;;;;;;;;;;5123123;28;20049;-79
2021/07/09 04:42:33;;;;;;;21.00;17.33;;;;;;;;;;5122894;28;20431;-79
2021/07/09 04:44:58;;;;;;;25.75;17.15;;;;;;;;;;5122411;28;20054;-79
2021/07/09 04:47:24;;;;;;;21.15;16.98;;;;;;;;;;5123151;28;20035;-79
2021/07/09 04:49:49;;;;;;;23.48;15.18;;;;;;;;;;5122729;28;20445;-79
2021/07/09 04:52:15;;;;;;;19.90;13.98;;;;;;;;;;5122584;28;20046;-79
2021/07/09 04:54:40;;;;;;;23.63;14.40;;;;;;;;;;5122129;28;20031;-79
2021/07/09 04:57:06;;;;;;;17.50;13.23;;;;;;;;;;5121699;28;20067;-79
2021/07/09 04:59:31;;;;;;;22.88;14.20;;;;;;;;;;5121002;28;20057;-79
2021/07/09 05:01:57;;;;;;;23.08;13.55;;;;;;;;;;5121563;28;20091;-79
2021/07/09 05:04:22;;;;;;;18.95;13.43;;;;;;;;;;5120887;28;20084;-79
2021/07/09 05:06:47;;;;;;;22.23;13.57;;;;;;;;;;5120989;28;20047;-79
2021/07/09 05:09:13;;;;;;;23.52;13.07;;;;;;;;;;5118105;28;20420;-79
2021/07/09 05:11:38;;;;;;;16.70;13.52;;;;;;;;;;5117564;28;20031;-79
2021/07/09 05:14:05;;;;;;;14.25;11.75;;;;;;;;;;5117809;28;20031;-79
2021/07/09 05:16:31;;;;;;;20.20;13.15;;;;;;;;;;5120052;28;20062;-79
2021/07/09 05:18:56;;;;;;;18.00;11.70;;;;;;;;;;5120278;28;20032;-79
2021/07/09 05:21:26;;;;;;;21.10;11.48;;;;;;;;;;5120637;28;20050;-79
2021/07/09 05:23:51;;;;;;;14.75;10.88;;;;;;;;;;5119154;28;20027;-79
2021/07/09 05:26:17;;;;;;;25.38;11.48;;;;;;;;;;5119508;27;20108;-79
2021/07/09 05:28:42;;;;;;;15.02;11.48;;;;;;;;;;5119185;28;20040;-79
2021/07/09 05:31:08;;;;;;;17.15;11.20;;;;;;;;;;5118874;28;20032;-79
2021/07/09 05:33:33;;;;;;;20.02;11.35;;;;;;;;;;5118797;28;20047;-80
2021/07/09 05:35:59;;;;;;;17.48;10.68;;;;;;;;;;5118484;28;20053;-79
2021/07/09 05:38:24;;;;;;;22.13;12.48;;;;;;;;;;5117080;28;20043;-79
2021/07/09 05:40:50;;;;;;;20.02;12.55;;;;;;;;;;5118883;28;20019;-80
2021/07/09 05:43:15;;;;;;;17.10;10.98;;;;;;;;;;5118426;28;20081;-79
2021/07/09 05:45:40;;;;;;;15.20;10.70;;;;;;;;;;5118739;28;20074;-79
2021/07/09 05:48:06;;;;;;;16.27;11.52;;;;;;;;;;5119548;28;20040;-80
2021/07/09 05:50:31;;;;;;;17.10;12.18;;;;;;;;;;5119839;28;20023;-79
2021/07/09 05:52:57;;;;;;;17.63;10.70;;;;;;;;;;5117481;28;20076;-80
2021/07/09 05:55:23;;;;;;;18.70;12.15;;;;;;;;;;5117634;28;20059;-79
2021/07/09 05:57:48;;;;;;;16.10;11.82;;;;;;;;;;5116214;28;20042;-79
2021/07/09 06:00:14;;;;;;;21.75;13.63;;;;;;;;;;5117343;28;20035;-80
2021/07/09 06:02:40;;;;;;;17.95;13.35;;;;;;;;;;5117793;28;20031;-80
2021/07/09 06:05:07;;;;;;;19.13;12.57;;;;;;;;;;5117344;28;20109;-79
2021/07/09 06:07:32;;;;;;;23.25;14.15;;;;;;;;;;5116757;28;20126;-79
2021/07/09 06:09:58;;;;;;;21.50;14.75;;;;;;;;;;5117757;28;20422;-79
2021/07/09 06:12:23;;;;;;;20.75;15.55;;;;;;;;;;5120850;28;20039;-79
2021/07/09 06:14:51;;;;;;;25.55;15.93;;;;;;;;;;5119864;27;20106;-79
2021/07/09 06:17:17;;;;;;;24.17;14.98;;;;;;;;;;5120008;28;20084;-79
2021/07/09 06:19:42;;;;;;;24.17;14.27;;;;;;;;;;5119768;28;20122;-78
2021/07/09 06:22:07;;;;;;;22.52;13.82;;;;;;;;;;5118477;28;20127;-77
2021/07/09 06:24:33;;;;;;;19.98;14.20;;;;;;;;;;5117780;28;20084;-79
2021/07/09 06:26:58;;;;;;;25.92;15.68;;;;;;;;;;5117856;28;20046;-77
2021/07/09 06:29:24;;;;;;;22.08;14.07;;;;;;;;;;5117783;28;20047;-77
2021/07/09 06:31:49;;;;;;;20.23;14.18;;;;;;;;;;5117602;28;20046;-77
2021/07/09 06:34:15;;;;;;;18.90;13.95;;;;;;;;;;5117573;28;20027;-77
2021/07/09 06:36:40;;;;;;;23.40;15.73;;;;;;;;;;5117477;28;20066;-77
2021/07/09 06:39:06;;;;;;;24.25;14.95;;;;;;;;;;5116260;28;20035;-77
2021/07/09 06:41:31;;;;;;;25.20;17.60;;;;;;;;;;5117454;28;20036;-77
2021/07/09 06:43:58;;;;;;;22.00;16.23;;;;;;;;;;5116354;28;20023;-77
2021/07/09 06:46:26;;;;;;;21.25;15.57;;;;;;;;;;5116241;28;20385;-76
2021/07/09 06:48:52;;;;;;;19.88;14.93;;;;;;;;;;5114939;28;20466;-76
2021/07/09 06:51:18;;;;;;;26.48;16.60;;;;;;;;;;5116938;28;20060;-77
2021/07/09 06:53:43;;;;;;;26.77;17.83;;;;;;;;;;5116379;28;20449;-77
2021/07/09 06:56:08;;;;;;;24.75;17.33;;;;;;;;;;5117544;28;20035;-77
2021/07/09 06:58:34;;;;;;;25.48;17.23;;;;;;;;;;5117247;28;20035;-77
2021/07/09 07:00:59;;;;;;;24.20;17.60;;;;;;;;;;5116726;28;20375;-78
2021/07/09 07:03:25;;;;;;;23.40;17.58;;;;;;;;;;5116916;28;20031;-80
2021/07/09 07:05:50;;;;;;;19.92;15.93;;;;;;;;;;5115685;28;20588;-79
2021/07/09 07:08:23;;;;;;;19.38;15.25;;;;;;;;;;5116622;27;20505;-78
2021/07/09 07:10:51;;;;;;;19.77;15.30;;;;;;;;;;5116219;28;20035;-78
2021/07/09 07:13:18;;;;;;;21.27;16.65;;;;;;;;;;5115343;28;20512;-76
2021/07/09 07:15:43;;;;;;;20.05;16.35;;;;;;;;;;5115856;28;20024;-76
2021/07/09 07:18:09;;;;;;;26.00;15.65;;;;;;;;;;5116544;28;20120;-77
2021/07/09 07:20:36;;;;;;;24.40;16.95;;;;;;;;;;5115991;28;20038;-76
2021/07/09 07:23:02;;;;;;;31.80;20.13;;;;;;;;;;5115804;28;20088;-78
2021/07/09 07:25:27;;;;;;;31.33;19.63;;;;;;;;;;5116520;28;20028;-77
2021/07/09 07:27:53;;;;;;;26.67;20.13;;;;;;;;;;5116500;28;20406;-77
2021/07/09 07:30:18;;;;;;;22.92;17.55;;;;;;;;;;5116275;28;20039;-77
2021/07/09 07:32:46;;;;;;;28.92;17.05;;;;;;;;;;5116397;28;20055;-80
2021/07/09 07:35:13;;;;;;;24.20;17.20;;;;;;;;;;5116192;28;20019;-78
2021/07/09 07:37:38;;;;;;;28.13;17.77;;;;;;;;;;5116011;28;20035;-77
2021/07/09 07:40:06;;;;;;;33.25;19.30;;;;;;;;;;5113090;28;20093;-77
2021/07/09 07:42:32;;;;;;;32.28;19.08;;;;;;;;;;5114935;28;20073;-77
2021/07/09 07:44:57;;;;;;;22.52;15.23;;;;;;;;;;5113244;28;20059;-77
2021/07/09 07:47:22;;;;;;;27.50;19.73;;;;;;;;;;5115859;28;20042;-77
2021/07/09 07:49:48;;;;;;;26.38;17.92;;;;;;;;;;5115443;28;20039;-78
2021/07/09 07:52:13;;;;;;;52.13;31.85;;;;;;;;;;5119203;28;20039;-80
2021/07/09 07:54:38;;;;;;;27.83;18.90;;;;;;;;;;5120799;28;20076;-80
2021/07/09 07:57:04;;;;;;;20.85;14.50;;;;;;;;;;5119640;28;20094;-80
2021/07/09 07:59:30;;;;;;;24.55;15.77;;;;;;;;;;5120379;28;20034;-78
2021/07/09 08:01:55;;;;;;;19.30;14.13;;;;;;;;;;5117848;28;20374;-81
2021/07/09 08:04:21;;;;;;;20.15;15.77;;;;;;;;;;5115922;28;20035;-78
2021/07/09 08:06:46;;;;;;;17.98;13.73;;;;;;;;;;5116011;28;20035;-84
2021/07/09 08:09:11;;;;;;;18.77;14.20;;;;;;;;;;5120583;28;20039;-83
2021/07/09 08:11:37;;;;;;;15.57;12.13;;;;;;;;;;5118306;28;20035;-81
2021/07/09 08:14:02;;;;;;;14.25;11.88;;;;;;;;;;5118748;28;20394;-79
2021/07/09 08:16:27;;;;;;;18.80;12.65;;;;;;;;;;5116871;28;20054;-79
2021/07/09 08:18:53;;;;;;;17.08;12.48;;;;;;;;;;5116371;28;20066;-79
2021/07/09 08:21:18;;;;;;;18.40;12.55;;;;;;;;;;5102373;28;20115;-81
2021/07/09 08:23:44;;;;;;;20.60;14.13;;;;;;;;;;5109445;28;20528;-85
2021/07/09 08:26:09;;;;;;;19.77;14.18;;;;;;;;;;5095492;28;20040;-83
2021/07/09 08:28:35;;;;;;;18.35;12.43;;;;;;;;;;5094600;28;20050;-82
2021/07/09 08:31:00;;;;;;;19.67;12.93;;;;;;;;;;5105734;28;20050;-83
2021/07/09 08:33:25;;;;;;;20.67;14.77;;;;;;;;;;5112876;28;20046;-82
2021/07/09 08:35:51;;;;;;;22.13;15.07;;;;;;;;;;5096810;28;20482;-79
2021/07/09 08:38:17;;;;;;;19.38;14.30;;;;;;;;;;5109108;28;20043;-78
2021/07/09 08:40:43;;;;;;;20.33;14.60;;;;;;;;;;5108254;28;20027;-83
2021/07/09 08:43:08;;;;;;;20.25;12.70;;;;;;;;;;5113955;28;20038;-82
2021/07/09 08:45:34;;;;;;;17.65;13.40;;;;;;;;;;5113946;28;20036;-82
2021/07/09 08:48:00;;;;;;;18.13;12.63;;;;;;;;;;5115248;28;20071;-82
2021/07/09 08:50:26;;;;;;;17.85;13.85;;;;;;;;;;5113722;28;20031;-80
2021/07/09 08:52:52;;;;;;;20.65;13.30;;;;;;;;;;5115489;28;20031;-81
2021/07/09 08:55:19;;;;;;;16.17;11.35;;;;;;;;;;5114953;28;20032;-81
2021/07/09 08:57:46;;;;;;;14.80;11.27;;;;;;;;;;5122642;27;20050;-79
2021/07/09 09:00:31;;;;;;;12.32;9.35;;;;;;;;;;5135562;27;20500;-80
2021/07/09 09:02:57;;;;;;;14.43;10.07;;;;;;;;;;5128133;27;20130;-79
2021/07/09 09:05:26;;;;;;;12.07;8.75;;;;;;;;;;5135732;27;20062;-79
2021/07/09 09:08:04;;;;;;;13.40;8.80;;;;;;;;;;5135784;27;20039;-79
2021/07/09 09:10:50;;;;;;;11.13;8.55;;;;;;;;;;5135181;27;20034;-79
2021/07/09 09:13:16;;;;;;;12.68;7.70;;;;;;;;;;5135686;27;20064;-79
2021/07/09 09:15:58;;;;;;;10.75;8.05;;;;;;;;;;5135227;27;20027;-79
2021/07/09 09:18:25;;;;;;;11.38;8.75;;;;;;;;;;5135763;27;20031;-79
2021/07/09 09:20:56;;;;;;;14.48;9.30;;;;;;;;;;5134204;27;20469;-79
2021/07/09 09:23:22;;;;;;;11.32;9.27;;;;;;;;;;5135107;27;20035;-80
2021/07/09 09:25:47;;;;;;;13.88;8.75;;;;;;;;;;5118839;27;20436;-79
2021/07/09 09:28:12;;;;;;;10.38;8.40;;;;;;;;;;5115538;28;20494;-80
2021/07/09 09:30:40;;;;;;;8.38;7.53;;;;;;;;;;5114963;28;20031;-79
2021/07/09 09:33:11;;;;;;;9.18;8.27;;;;;;;;;;5114553;28;20100;-78
2021/07/09 09:35:41;;;;;;;9.30;7.97;;;;;;;;;;5115617;28;20051;-79
2021/07/09 09:38:10;;;;;;;9.23;7.10;;;;;;;;;;5116946;28;20040;-79
2021/07/09 09:40:38;;;;;;;10.43;8.25;;;;;;;;;;5115765;28;20015;-78
2021/07/09 09:43:14;;;;;;;9.80;8.00;;;;;;;;;;5114930;28;20032;-78
2021/07/09 09:45:42;;;;;;;12.13;9.50;;;;;;;;;;5113499;28;20035;-77
2021/07/09 09:48:14;;;;;;;11.63;7.50;;;;;;;;;;5113927;28;20035;-78
2021/07/09 09:50:48;;;;;;;11.95;7.72;;;;;;;;;;5114024;28;20032;-78
2021/07/09 09:53:14;;;;;;;14.68;7.80;;;;;;;;;;5114135;28;20465;-78
2021/07/09 09:55:41;;;;;;;8.68;7.22;;;;;;;;;;5113205;28;20142;-77
2021/07/09 09:58:18;;;;;;;14.13;8.90;;;;;;;;;;5113869;28;20619;-77
2021/07/09 10:00:49;;;;;;;8.40;7.50;;;;;;;;;;5114410;28;20038;-78
2021/07/09 10:03:15;;;;;;;13.38;8.23;;;;;;;;;;5114527;28;20048;-78
2021/07/09 10:05:44;;;;;;;11.02;8.60;;;;;;;;;;5114678;28;20039;-79
2021/07/09 10:08:12;;;;;;;10.27;8.13;;;;;;;;;;5113381;28;20048;-78
2021/07/09 10:10:39;;;;;;;9.00;7.32;;;;;;;;;;5114237;28;20031;-78
2021/07/09 10:13:06;;;;;;;10.90;8.23;;;;;;;;;;5114064;28;20051;-78
2021/07/09 10:15:32;;;;;;;11.32;8.35;;;;;;;;;;5113651;28;20036;-78
2021/07/09 10:17:58;;;;;;;9.45;7.15;;;;;;;;;;5114325;28;20096;-78
2021/07/09 10:20:24;;;;;;;6.28;5.03;;;;;;;;;;5114812;28;20041;-78
2021/07/09 10:22:50;;;;;;;5.00;3.95;;;;;;;;;;5114179;28;20035;-78
2021/07/09 10:25:17;;;;;;;5.15;4.65;;;;;;;;;;5100880;28;20089;-78
2021/07/09 10:27:43;;;;;;;11.88;5.97;;;;;;;;;;5093650;28;20032;-78
2021/07/09 10:30:09;;;;;;;6.38;5.10;;;;;;;;;;5092086;28;20043;-78
2021/07/09 10:32:48;;;;;;;7.38;3.33;;;;;;;;;;5093467;28;20051;-78
2021/07/09 10:35:41;;;;;;;3.92;3.00;;;;;;;;;;5093614;28;20090;-78
2021/07/09 10:38:12;;;;;;;4.97;3.80;;;;;;;;;;5094022;28;20043;-78
2021/07/09 10:40:38;;;;;;;6.70;3.65;;;;;;;;;;5093944;28;20054;-78
2021/07/09 10:43:05;;;;;;;4.80;3.92;;;;;;;;;;5092959;28;20040;-78
2021/07/09 10:45:31;;;;;;;5.28;4.05;;;;;;;;;;5092291;28;20035;-78
2021/07/09 10:48:03;;;;;;;8.35;4.68;;;;;;;;;;5093332;28;20118;-78
2021/07/09 10:50:37;;;;;;;7.85;4.50;;;;;;;;;;5093187;28;20032;-78
2021/07/09 10:53:09;;;;;;;9.15;5.07;;;;;;;;;;5093641;28;20482;-78
2021/07/09 10:55:42;;;;;;;6.18;4.55;;;;;;;;;;5106458;28;20457;-78
2021/07/09 10:58:07;;;;;;;10.50;4.88;;;;;;;;;;5115227;28;20038;-78
2021/07/09 11:00:45;;;;;;;4.82;4.13;;;;;;;;;;5117342;28;20036;-78
2021/07/09 11:03:26;;;;;;;4.88;3.60;;;;;;;;;;5116904;28;20470;-78
2021/07/09 11:05:52;;;;;;;3.88;3.47;;;;;;;;;;5117276;28;20036;-78
2021/07/09 11:08:29;;;;;;;8.00;3.92;;;;;;;;;;5117568;28;20058;-78
2021/07/09 11:11:05;;;;;;;4.68;3.88;;;;;;;;;;5116971;28;20535;-78
2021/07/09 11:13:39;;;;;;;6.28;4.15;;;;;;;;;;5117343;28;20046;-78
2021/07/09 11:16:22;;;;;;;5.00;3.78;;;;;;;;;;5115246;28;20490;-78
2021/07/09 11:18:56;;;;;;;7.10;4.25;;;;;;;;;;5116825;28;20040;-78
2021/07/09 11:21:30;;;;;;;4.90;4.40;;;;;;;;;;5116658;28;20123;-78
2021/07/09 11:24:07;;;;;;;5.03;4.18;;;;;;;;;;5114937;28;20031;-78
2021/07/09 11:26:36;;;;;;;4.95;4.10;;;;;;;;;;5116587;28;20039;-78
2021/07/09 11:29:26;;;;;;;4.93;4.38;;;;;;;;;;5116501;28;20035;-77
2021/07/09 11:31:54;;;;;;;6.75;5.63;;;;;;;;;;5115926;28;20036;-77
2021/07/09 11:34:21;;;;;;;8.02;5.10;;;;;;;;;;5114649;28;20040;-77
2021/07/09 11:36:50;;;;;;;8.07;5.20;;;;;;;;;;5116250;28;20413;-78
2021/07/09 11:39:17;;;;;;;4.95;4.45;;;;;;;;;;5114927;28;20020;-78
2021/07/09 11:41:58;;;;;;;5.32;4.35;;;;;;;;;;5115863;28;20042;-78
2021/07/09 11:44:29;;;;;;;6.22;4.65;;;;;;;;;;5116376;28;20077;-78
2021/07/09 11:46:57;;;;;;;6.68;5.45;;;;;;;;;;5115894;28;20504;-78
2021/07/09 11:49:25;;;;;;;8.30;5.13;;;;;;;;;;5116406;27;20036;-78
2021/07/09 11:51:54;;;;;;;6.97;4.97;;;;;;;;;;5116053;28;20035;-78
2021/07/09 11:54:25;;;;;;;5.80;4.65;;;;;;;;;;5114962;28;20020;-77
2021/07/09 11:56:52;;;;;;;7.68;4.95;;;;;;;;;;5115373;28;20042;-77
2021/07/09 11:59:20;;;;;;;7.15;6.18;;;;;;;;;;5115405;28;20023;-77
2021/07/09 12:02:04;;;;;;;7.22;5.95;;;;;;;;;;5115098;28;20031;-78
2021/07/09 12:04:31;;;;;;;8.57;6.60;;;;;;;;;;5115171;28;20482;-77
2021/07/09 12:07:23;;;;;;;7.60;6.32;;;;;;;;;;5115416;28;20032;-78
2021/07/09 12:10:00;;;;;;;10.15;6.60;;;;;;;;;;5110175;28;20032;-77
2021/07/09 12:12:33;;;;;;;8.25;6.25;;;;;;;;;;5109601;28;20096;-79
2021/07/09 12:14:58;;;;;;;8.60;6.53;;;;;;;;;;5115550;28;20027;-77
2021/07/09 12:17:26;;;;;;;10.45;5.88;;;;;;;;;;5114798;28;20410;-77
2021/07/09 12:20:00;;;;;;;6.63;5.93;;;;;;;;;;5115234;28;20032;-76
2021/07/09 12:22:29;;;;;;;7.07;5.50;;;;;;;;;;5115280;28;20450;-77
2021/07/09 12:24:55;;;;;;;8.85;5.75;;;;;;;;;;5113695;28;20031;-76
2021/07/09 12:27:21;;;;;;;7.47;6.40;;;;;;;;;;5115068;28;20043;-77
2021/07/09 12:29:47;;;;;;;8.82;6.70;;;;;;;;;;5115189;28;20036;-76
2021/07/09 12:32:13;;;;;;;9.20;6.65;;;;;;;;;;5114791;28;20546;-78
2021/07/09 12:34:38;;;;;;;8.15;5.18;;;;;;;;;;5114300;28;20127;-77
2021/07/09 12:37:04;;;;;;;32.00;22.30;;;;;;;;;;5115059;28;20122;-78
2021/07/09 12:39:30;;;;;;;28.58;20.55;;;;;;;;;;5114367;28;20059;-77
2021/07/09 12:41:56;;;;;;;11.07;8.10;;;;;;;;;;5115921;28;20470;-77
2021/07/09 12:44:21;;;;;;;10.35;7.30;;;;;;;;;;5116034;28;20031;-78
2021/07/09 12:46:47;;;;;;;11.25;6.65;;;;;;;;;;5115127;28;20028;-78
2021/07/09 12:49:14;;;;;;;14.95;6.80;;;;;;;;;;5115817;28;20551;-77
2021/07/09 12:51:43;;;;;;;11.93;6.68;;;;;;;;;;5115688;28;20122;-79
2021/07/09 12:54:15;;;;;;;11.07;7.40;;;;;;;;;;5115414;28;20039;-78
2021/07/09 12:56:44;;;;;;;13.63;7.70;;;;;;;;;;5115731;28;20035;-79
2021/07/09 12:59:19;;;;;;;9.48;6.47;;;;;;;;;;5115294;28;20043;-78
2021/07/09 13:01:45;;;;;;;11.85;7.97;;;;;;;;;;5115344;28;20039;-78
2021/07/09 13:04:19;;;;;;;11.07;7.30;;;;;;;;;;5114913;28;20044;-79
2021/07/09 13:06:45;;;;;;;13.60;6.72;;;;;;;;;;5115208;28;20126;-78
2021/07/09 13:09:19;;;;;;;11.02;6.20;;;;;;;;;;5114348;28;20071;-79
2021/07/09 13:11:51;;;;;;;8.00;5.55;;;;;;;;;;5113212;28;20126;-79
2021/07/09 13:14:24;;;;;;;8.73;5.00;;;;;;;;;;5114987;28;20028;-78
2021/07/09 13:16:52;;;;;;;9.55;5.78;;;;;;;;;;5114530;28;20063;-78
2021/07/09 13:19:37;;;;;;;9.20;5.20;;;;;;;;;;5114696;28;20039;-78
2021/07/09 13:22:08;;;;;;;7.13;4.67;;;;;;;;;;5114528;28;20085;-78
2021/07/09 13:24:40;;;;;;;9.18;5.00;;;;;;;;;;5114521;28;20057;-78
2021/07/09 13:27:25;;;;;;;11.18;5.63;;;;;;;;;;5113636;28;20469;-78
2021/07/09 13:29:59;;;;;;;7.68;5.30;;;;;;;;;;5114802;28;20036;-78
2021/07/09 13:32:29;;;;;;;8.95;5.07;;;;;;;;;;5114268;28;20036;-78
2021/07/09 13:34:54;;;;;;;10.70;5.43;;;;;;;;;;5114688;28;20040;-78
2021/07/09 13:37:20;;;;;;;7.43;5.00;;;;;;;;;;5113362;28;20031;-78
2021/07/09 13:39:45;;;;;;;9.68;5.28;;;;;;;;;;5114357;28;20040;-78
2021/07/09 13:42:10;;;;;;;8.35;5.03;;;;;;;;;;5114215;28;20035;-78
2021/07/09 13:44:36;;;;;;;8.05;5.13;;;;;;;;;;5113940;28;20095;-78
2021/07/09 13:47:01;;;;;;;7.22;5.18;;;;;;;;;;5113582;27;20532;-78
2021/07/09 13:49:26;;;;;;;7.78;4.72;;;;;;;;;;5113084;28;20525;-78
2021/07/09 13:51:52;;;;;;;6.70;4.55;;;;;;;;;;5114179;28;20389;-78
2021/07/09 13:54:17;;;;;;;6.57;4.47;;;;;;;;;;5113861;28;20473;-78
2021/07/09 13:56:43;;;;;;;7.22;4.25;;;;;;;;;;5114129;28;20036;-78
2021/07/09 13:59:08;;;;;;;8.38;4.32;;;;;;;;;;5114028;28;20063;-78
2021/07/09 14:01:34;;;;;;;8.48;4.30;;;;;;;;;;5113825;28;20043;-78
2021/07/09 14:03:59;;;;;;;7.10;3.90;;;;;;;;;;5130886;28;20054;-78
2021/07/09 14:06:24;;;;;;;5.85;4.35;;;;;;;;;;5134627;27;20047;-78
2021/07/09 14:08:50;;;;;;;11.65;4.68;;;;;;;;;;5134612;27;20086;-78
2021/07/09 14:11:15;;;;;;;8.05;4.07;;;;;;;;;;5134389;27;20039;-78
2021/07/09 14:13:41;;;;;;;6.63;4.75;;;;;;;;;;5134556;27;20080;-78
2021/07/09 14:16:06;;;;;;;7.97;3.75;;;;;;;;;;5134387;27;20039;-79
2021/07/09 14:18:32;;;;;;;6.47;3.95;;;;;;;;;;5134783;27;20031;-79
2021/07/09 14:20:57;;;;;;;5.88;4.32;;;;;;;;;;5133336;27;20024;-78
2021/07/09 14:23:23;;;;;;;7.30;4.32;;;;;;;;;;5134476;27;20121;-79
2021/07/09 14:25:53;;;;;;;4.97;3.67;;;;;;;;;;5118088;27;20026;-79
2021/07/09 14:28:20;;;;;;;7.25;3.78;;;;;;;;;;5114022;28;20039;-78
2021/07/09 14:30:46;;;;;;;9.45;5.47;;;;;;;;;;5113791;28;20462;-79
2021/07/09 14:33:12;;;;;;;6.70;4.32;;;;;;;;;;5117783;28;20042;-79